Time,TemperatureF,DewpointF,PressureIn,WindDirection,WindDirectionDegrees,WindSpeedMPH,WindSpeedGustMPH,Humidity,HourlyPrecipIn,Conditions,Clouds,dailyrainin,SolarRadiationWatts/m^2,SoftwareType,DateUTC
2017-03-27 00:03:00,45.2,43.6,29.94,NNE,29,5.6,6.9,94,0.00,RA,,0.00,0.0,WeatherDisplay:10.37,2017-03-27 05:03:00,
2017-03-27 00:08:00,45.1,43.5,29.93,NNE,27,5.6,7.0,94,0.00,RA,,0.00,0.0,WeatherDisplay:10.37,2017-03-27 05:08:00,
2017-03-27 00:13:00,45.1,43.5,29.94,NNE,29,4.9,5.8,94,0.00,RA,,0.00,0.0,WeatherDisplay:10.37,2017-03-27 05:13:00,
2017-03-27 00:18:00,45.1,43.5,29.94,NNE,22,4.7,5.8,94,0.00,FEW,,0.00,0.0,WeatherDisplay:10.37,2017-03-27 05:18:00,
2017-03-27 00:23:00,45.0,43.4,29.94,North,11,4.9,7.0,94,0.00,FEW,,0.00,0.0,WeatherDisplay:10.37,2017-03-27 05:23:00,
2017-03-27 00:28:00,45.0,43.4,29.94,North,3,3.4,4.6,94,0.00,FEW,,0.00,0.0,WeatherDisplay:10.37,2017-03-27 05:28:00,
2017-03-27 00:33:00,45.0,43.4,29.94,North,356,5.4,5.8,94,0.00,FEW,,0.00,0.0,WeatherDisplay:10.37,2017-03-27 05:33:00,
2017-03-27 00:38:00,45.0,43.4,29.94,North,2,5.7,6.9,94,0.00,FEW,,0.00,0.0,WeatherDisplay:10.37,2017-03-27 05:38:00,
2017-03-27 00:43:00,45.0,43.4,29.93,North,6,5.8,6.9,94,0.00,FEW,,0.00,0.0,WeatherDisplay:10.37,2017-03-27 05:43:00,
2017-03-27 00:48:00,45.0,43.4,29.94,NNE,18,5.3,6.9,94,0.00,FEW,,0.00,0.0,WeatherDisplay:10.37,2017-03-27 05:48:00,
2017-03-27 00:53:00,45.0,43.4,29.93,North,4,5.0,6.0,94,0.00,FEW,,0.00,0.0,WeatherDisplay:10.37,2017-03-27 05:53:00,
2017-03-27 00:58:00,44.9,43.3,29.93,NNE,12,6.8,8.1,94,0.00,FEW,,0.00,0.0,WeatherDisplay:10.37,2017-03-27 05:58:00,
2017-03-27 01:03:00,44.9,43.3,29.93,NNE,20,4.5,6.9,94,0.00,FEW,,0.00,0.0,WeatherDisplay:10.37,2017-03-27 06:03:00,
2017-03-27 01:08:00,44.9,43.3,29.93,NNE,14,5.3,6.9,94,0.00,FEW,,0.00,0.0,WeatherDisplay:10.37,2017-03-27 06:08:00,
2017-03-27 01:13:00,44.9,43.3,29.92,NNE,14,7.6,10.4,94,0.00,FEW,,0.00,0.0,WeatherDisplay:10.37,2017-03-27 06:13:00,
2017-03-27 01:18:00,44.9,43.3,29.92,North,11,6.5,8.1,94,0.00,FEW,,0.00,0.0,WeatherDisplay:10.37,2017-03-27 06:18:00,
2017-03-27 01:23:00,44.9,43.3,29.92,North,6,6.8,8.1,94,0.00,FEW,,0.00,0.0,WeatherDisplay:10.37,2017-03-27 06:23:00,
2017-03-27 01:28:00,44.9,43.3,29.92,North,6,7.8,10.4,94,0.00,FEW,,0.00,0.0,WeatherDisplay:10.37,2017-03-27 06:28:00,
2017-03-27 01:33:00,44.8,43.2,29.92,North,9,7.3,9.2,94,0.00,FEW,,0.00,0.0,WeatherDisplay:10.37,2017-03-27 06:33:00,
2017-03-27 01:38:00,44.8,43.5,29.92,North,356,7.7,9.0,95,0.00,FEW,,0.00,0.0,WeatherDisplay:10.37,2017-03-27 06:38:00,
2017-03-27 01:43:00,44.8,43.2,29.92,North,1,8.8,11.0,94,0.00,FEW,,0.00,0.0,WeatherDisplay:10.37,2017-03-27 06:43:00,
2017-03-27 01:48:00,44.8,43.2,29.92,North,353,7.6,9.2,94,0.00,FEW,,0.00,0.0,WeatherDisplay:10.37,2017-03-27 06:48:00,
2017-03-27 01:53:00,44.7,43.4,29.92,North,353,6.3,7.0,95,0.00,FEW,,0.00,0.0,WeatherDisplay:10.37,2017-03-27 06:53:00,
2017-03-27 01:58:00,44.7,43.4,29.93,North,4,8.2,10.4,95,0.00,FEW,,0.00,0.0,WeatherDisplay:10.37,2017-03-27 06:58:00,
2017-03-27 02:03:00,44.7,43.4,29.93,North,8,7.8,9.2,95,0.00,FEW,,0.00,0.0,WeatherDisplay:10.37,2017-03-27 07:03:00,
2017-03-27 02:08:00,44.7,43.4,29.93,North,3,8.9,11.5,95,0.00,FEW,,0.00,0.0,WeatherDisplay:10.37,2017-03-27 07:08:00,
2017-03-27 02:13:00,44.6,43.3,29.93,NNE,17,7.7,9.2,95,0.00,FEW,,0.00,0.0,WeatherDisplay:10.37,2017-03-27 07:13:00,
2017-03-27 02:18:00,44.7,43.4,29.93,North,11,8.1,10.4,95,0.00,FEW,,0.00,0.0,WeatherDisplay:10.37,2017-03-27 07:18:00,
2017-03-27 02:23:00,44.6,43.3,29.93,North,6,9.2,11.5,95,0.00,FEW,,0.00,0.0,WeatherDisplay:10.37,2017-03-27 07:23:00,